createdAt,value
2022-12-25T00:02:21.651Z,4.53
2022-12-25T00:07:23.223Z,4.60
2022-12-25T00:12:24.061Z,5.40
2022-12-25T00:17:24.911Z,5.93
2022-12-25T00:22:25.681Z,5.90
2022-12-25T00:27:26.563Z,6.45
2022-12-25T00:32:27.306Z,7.62
2022-12-25T00:37:28.065Z,6.47
2022-12-25T00:42:28.828Z,7.53
2022-12-25T00:47:29.710Z,7.60
2022-12-25T00:52:30.487Z,7.20
2022-12-25T00:57:32.458Z,7.78
2022-12-25T01:02:33.417Z,7.87
2022-12-25T01:07:34.458Z,6.95
2022-12-25T01:12:38.625Z,8.68
2022-12-25T01:17:41.006Z,7.80
2022-12-25T01:22:42.937Z,9.07
2022-12-25T01:27:43.757Z,8.00
2022-12-25T01:32:44.534Z,8.93
2022-12-25T01:37:45.279Z,10.10
2022-12-25T01:42:46.062Z,11.63
2022-12-25T01:47:47.013Z,11.05
2022-12-25T01:52:50.052Z,11.90
2022-12-25T01:57:50.929Z,10.38
2022-12-25T02:02:51.950Z,13.00
2022-12-25T02:07:53.716Z,12.20
2022-12-25T02:12:55.033Z,11.95
2022-12-25T02:18:12.949Z,12.95
2022-12-25T02:27:00.455Z,14.80
2022-12-25T02:32:13.021Z,14.13
2022-12-25T02:37:38.232Z,13.80
2022-12-25T02:43:20.147Z,13.15
2022-12-25T02:48:42.951Z,14.05
2022-12-25T02:54:04.899Z,14.50
2022-12-25T02:59:25.823Z,13.48
2022-12-25T03:04:48.264Z,12.73
2022-12-25T03:10:25.423Z,12.73
2022-12-25T03:15:45.166Z,11.90
2022-12-25T03:21:05.111Z,11.68
2022-12-25T03:26:26.140Z,11.43
2022-12-25T03:31:46.469Z,10.02
2022-12-25T03:38:28.624Z,9.57
2022-12-25T03:45:26.228Z,8.60
2022-12-25T03:51:05.987Z,7.78
2022-12-25T03:56:27.345Z,7.03
2022-12-25T04:01:46.966Z,6.90
2022-12-25T04:07:06.243Z,7.50
2022-12-25T04:12:25.947Z,7.37
2022-12-25T04:17:45.983Z,8.07
2022-12-25T04:23:05.517Z,7.95
2022-12-25T04:28:24.796Z,9.07
2022-12-25T04:33:44.382Z,9.52
2022-12-25T04:38:45.227Z,10.63
2022-12-25T04:43:45.995Z,11.75
2022-12-25T04:48:46.750Z,10.38
2022-12-25T04:53:48.967Z,10.07
2022-12-25T04:58:49.828Z,10.20
2022-12-25T05:03:51.019Z,9.52
2022-12-25T05:08:53.001Z,10.45
2022-12-25T05:13:53.737Z,9.10
2022-12-25T05:18:54.877Z,9.32
2022-12-25T05:23:55.658Z,9.23
2022-12-25T05:28:56.587Z,9.63
2022-12-25T05:33:57.384Z,9.98
2022-12-25T05:38:58.191Z,10.18
2022-12-25T05:43:58.939Z,11.88
2022-12-25T05:48:59.734Z,11.15
2022-12-25T05:54:00.534Z,10.80
2022-12-25T05:59:01.511Z,10.77
2022-12-25T06:04:06.996Z,10.35
2022-12-25T06:09:12.682Z,7.90
2022-12-25T06:14:15.527Z,6.87
2022-12-25T06:19:16.299Z,8.50
2022-12-25T06:24:21.174Z,7.90
2022-12-25T06:29:22.613Z,9.75
2022-12-25T06:34:23.693Z,11.52
2022-12-25T06:39:24.771Z,15.07
2022-12-25T06:44:25.602Z,19.40
2022-12-25T06:49:26.485Z,16.08
2022-12-25T06:54:27.520Z,15.82
2022-12-25T06:59:28.489Z,16.30
2022-12-25T07:04:39.697Z,15.65
2022-12-25T07:09:41.863Z,15.32
2022-12-25T07:14:44.531Z,15.25
2022-12-25T07:19:46.407Z,17.23
2022-12-25T07:24:47.149Z,17.37
2022-12-25T07:29:49.118Z,19.95
2022-12-25T07:34:49.851Z,19.55
2022-12-25T07:39:50.660Z,20.48
2022-12-25T07:44:51.388Z,19.55
2022-12-25T07:49:52.200Z,19.50
2022-12-25T07:54:52.913Z,18.80
2022-12-25T07:59:53.801Z,19.08
2022-12-25T08:04:54.562Z,21.35
2022-12-25T08:09:55.364Z,21.17
2022-12-25T08:14:56.088Z,18.37
2022-12-25T08:19:56.870Z,19.15
2022-12-25T08:24:57.581Z,19.27
2022-12-25T08:29:58.832Z,18.35
2022-12-25T08:34:59.615Z,19.75
2022-12-25T08:40:00.947Z,25.40
2022-12-25T08:45:01.708Z,28.40
2022-12-25T08:50:02.912Z,21.85
2022-12-25T08:55:04.540Z,23.17
2022-12-25T09:00:06.693Z,18.73
2022-12-25T09:05:08.448Z,18.05
2022-12-25T09:10:10.399Z,19.45
2022-12-25T09:15:11.272Z,19.27
2022-12-25T09:20:12.381Z,18.80
2022-12-25T09:25:13.513Z,16.83
2022-12-25T09:30:15.604Z,14.77
2022-12-25T09:35:19.213Z,14.98
2022-12-25T09:40:21.130Z,17.33
2022-12-25T09:45:29.191Z,17.02
2022-12-25T09:50:50.460Z,22.62
2022-12-25T09:56:13.090Z,19.67
2022-12-25T10:01:39.858Z,21.83
2022-12-25T10:07:15.754Z,23.85
2022-12-25T10:13:00.828Z,24.50
2022-12-25T10:19:34.128Z,20.85
2022-12-25T10:24:42.238Z,28.30
2022-12-25T10:29:46.892Z,24.85
2022-12-25T10:34:48.872Z,24.20
2022-12-25T10:39:49.699Z,25.70
2022-12-25T10:44:58.908Z,22.45
2022-12-25T10:50:07.021Z,19.62
2022-12-25T10:55:12.965Z,19.35
2022-12-25T11:00:28.135Z,22.50
2022-12-25T11:05:34.364Z,20.30
2022-12-25T11:10:41.068Z,22.33
2022-12-25T11:15:45.232Z,18.75
2022-12-25T11:21:01.785Z,18.35
2022-12-25T11:26:07.530Z,20.17
2022-12-25T11:31:16.083Z,17.87
2022-12-25T11:36:23.825Z,17.80
2022-12-25T11:41:32.318Z,14.52
2022-12-25T11:46:44.709Z,15.73
2022-12-25T11:51:48.305Z,16.30
2022-12-25T11:56:49.575Z,11.73
2022-12-25T12:02:02.783Z,13.43
2022-12-25T12:07:22.777Z,15.60
2022-12-25T12:12:49.050Z,15.63
2022-12-25T12:17:50.201Z,15.32
2022-12-25T12:22:51.410Z,17.50
2022-12-25T12:28:04.487Z,17.23
2022-12-25T12:33:18.780Z,20.17
2022-12-25T12:38:23.479Z,21.40
2022-12-25T12:43:37.937Z,21.58
2022-12-25T12:48:41.784Z,20.62
2022-12-25T12:53:42.785Z,21.42
2022-12-25T12:58:50.179Z,20.55
2022-12-25T13:06:01.802Z,20.80
2022-12-25T13:11:14.919Z,21.17
2022-12-25T13:16:51.981Z,19.87
2022-12-25T13:21:58.214Z,19.73
2022-12-25T13:27:00.140Z,17.48
2022-12-25T13:32:04.028Z,17.93
2022-12-25T13:37:21.139Z,16.95
2022-12-25T13:42:26.024Z,17.08
2022-12-25T13:47:35.598Z,15.65
2022-12-25T13:52:38.168Z,17.30
2022-12-25T13:57:43.537Z,17.45
2022-12-25T14:02:44.747Z,16.80
2022-12-25T14:07:51.605Z,15.63
2022-12-25T14:12:55.496Z,16.80
2022-12-25T14:17:57.394Z,19.12
2022-12-25T14:23:00.101Z,14.45
2022-12-25T14:28:07.339Z,16.80
2022-12-25T14:33:14.265Z,15.82
2022-12-25T14:38:25.372Z,15.48
2022-12-25T14:43:27.976Z,13.90
2022-12-25T14:48:31.392Z,12.33
2022-12-25T14:53:40.201Z,11.98
2022-12-25T14:58:45.997Z,10.63
2022-12-25T15:03:48.420Z,11.02
2022-12-25T15:09:00.883Z,11.30
2022-12-25T15:14:01.826Z,12.30
2022-12-25T15:19:02.666Z,10.85
2022-12-25T15:24:03.972Z,11.02
2022-12-25T15:29:06.750Z,10.55
2022-12-25T15:34:18.642Z,18.87
2022-12-25T15:39:19.843Z,23.58
2022-12-25T15:44:22.231Z,17.92
2022-12-25T15:49:23.370Z,17.02
2022-12-25T15:54:24.228Z,16.35
2022-12-25T15:59:24.977Z,18.40
2022-12-25T16:04:27.570Z,16.15
2022-12-25T16:09:28.364Z,18.48
2022-12-25T16:14:29.258Z,19.87
2022-12-25T16:19:30.641Z,18.45
2022-12-25T16:24:31.399Z,19.10
2022-12-25T16:29:32.187Z,28.98
2022-12-25T16:34:32.926Z,31.33
2022-12-25T16:39:33.691Z,52.88
2022-12-25T16:44:36.538Z,39.42
2022-12-25T16:49:37.541Z,29.58
2022-12-25T16:54:38.828Z,22.52
2022-12-25T16:59:40.786Z,15.95
2022-12-25T17:04:43.311Z,20.15
2022-12-25T17:09:47.361Z,17.33
2022-12-25T17:14:48.295Z,15.93
2022-12-25T17:19:49.083Z,20.40
2022-12-25T17:24:49.893Z,17.17
2022-12-25T17:29:50.637Z,15.98
2022-12-25T17:34:51.448Z,15.32
2022-12-25T17:39:52.209Z,14.13
2022-12-25T17:44:53.222Z,11.70
2022-12-25T17:49:54.191Z,11.30
2022-12-25T17:54:55.500Z,11.90
2022-12-25T17:59:56.443Z,14.98
2022-12-25T18:04:57.440Z,11.38
2022-12-25T18:09:58.165Z,10.60
2022-12-25T18:14:59.116Z,10.73
2022-12-25T18:19:59.867Z,10.10
2022-12-25T18:25:01.028Z,11.75
2022-12-25T18:30:02.116Z,12.07
2022-12-25T18:35:03.573Z,12.25
2022-12-25T18:40:05.663Z,11.00
2022-12-25T18:45:10.432Z,10.60
2022-12-25T18:50:11.816Z,9.85
2022-12-25T18:55:13.029Z,10.07
2022-12-25T19:00:14.115Z,10.32
2022-12-25T19:05:16.241Z,9.45
2022-12-25T19:10:17.281Z,9.70
2022-12-25T19:15:18.749Z,9.63
2022-12-25T19:20:19.527Z,8.07
2022-12-25T19:25:20.294Z,8.48
2022-12-25T19:30:21.055Z,8.93
2022-12-25T19:35:22.043Z,8.25
2022-12-25T19:40:23.119Z,7.72
2022-12-25T19:45:24.116Z,9.07
2022-12-25T19:50:27.726Z,8.05
2022-12-25T19:55:31.470Z,7.47
2022-12-25T20:00:32.237Z,7.28
2022-12-25T20:05:34.688Z,8.50
2022-12-25T20:10:41.245Z,7.18
2022-12-25T20:15:42.132Z,7.65
2022-12-25T20:20:44.269Z,7.70
2022-12-25T20:25:45.034Z,7.65
2022-12-25T20:30:46.280Z,7.00
2022-12-25T20:35:47.919Z,7.28
2022-12-25T20:41:25.005Z,7.72
2022-12-25T20:46:27.153Z,6.65
2022-12-25T20:51:28.099Z,7.03
2022-12-25T20:56:29.672Z,7.18
2022-12-25T21:01:31.061Z,7.78
2022-12-25T21:06:32.284Z,7.72
2022-12-25T21:11:33.155Z,7.22
2022-12-25T21:16:34.654Z,7.30
2022-12-25T21:21:38.605Z,8.13
2022-12-25T21:26:44.439Z,6.93
2022-12-25T21:32:11.688Z,6.68
2022-12-25T21:37:12.458Z,6.30
2022-12-25T21:42:13.246Z,6.60
2022-12-25T21:47:14.077Z,6.40
2022-12-25T21:52:15.045Z,8.75
2022-12-25T21:57:15.836Z,10.02
2022-12-25T22:02:18.276Z,7.68
2022-12-25T22:07:19.287Z,5.15
2022-12-25T22:12:39.547Z,5.12
2022-12-25T22:18:00.872Z,5.32
2022-12-25T22:23:01.855Z,5.15
2022-12-25T22:28:02.872Z,4.85
2022-12-25T22:33:05.926Z,4.78
2022-12-25T22:38:06.755Z,4.62
2022-12-25T22:43:07.952Z,5.22
2022-12-25T22:48:08.902Z,8.60
2022-12-25T22:53:09.699Z,4.90
2022-12-25T22:58:10.458Z,3.47
2022-12-25T23:03:12.128Z,3.92
2022-12-25T23:08:13.239Z,3.40
2022-12-25T23:13:33.214Z,3.00
2022-12-25T23:18:54.391Z,3.20
2022-12-25T23:24:13.971Z,2.90
2022-12-25T23:29:33.489Z,3.35
2022-12-25T23:34:36.501Z,3.58
2022-12-25T23:39:37.481Z,3.62
2022-12-25T23:44:38.277Z,3.17
2022-12-25T23:49:39.377Z,3.60
2022-12-25T23:54:40.318Z,3.65
2022-12-25T23:59:41.047Z,3.40
